sensor_id;sensor_type;location;lat;lon;timestamp;pressure;altitude;pressure_sealevel;temperature;humidity
8366;BME280;4220;42.502;24.188;2023-08-20T00:00:31;95579.78;;;22.94;84.91
8366;BME280;4220;42.502;24.188;2023-08-20T00:03:01;95569.63;;;22.81;85.53
8366;BME280;4220;42.502;24.188;2023-08-20T00:05:30;95562.97;;;22.39;86.95
8366;BME280;4220;42.502;24.188;2023-08-20T00:07:58;95571.06;;;22.10;88.88
8366;BME280;4220;42.502;24.188;2023-08-20T00:10:25;95566.06;;;21.84;90.69
8366;BME280;4220;42.502;24.188;2023-08-20T00:12:52;95550.97;;;21.78;92.06
8366;BME280;4220;42.502;24.188;2023-08-20T00:15:19;95555.50;;;21.92;92.16
8366;BME280;4220;42.502;24.188;2023-08-20T00:17:48;95565.78;;;21.90;91.01
8366;BME280;4220;42.502;24.188;2023-08-20T00:20:15;95556.69;;;22.15;89.90
8366;BME280;4220;42.502;24.188;2023-08-20T00:22:42;95568.94;;;22.36;88.29
8366;BME280;4220;42.502;24.188;2023-08-20T00:25:13;95523.81;;;22.37;87.17
8366;BME280;4220;42.502;24.188;2023-08-20T00:27:40;95562.16;;;22.72;86.42
8366;BME280;4220;42.502;24.188;2023-08-20T00:30:08;95557.16;;;22.85;85.63
8366;BME280;4220;42.502;24.188;2023-08-20T00:32:36;95547.38;;;22.89;84.80
8366;BME280;4220;42.502;24.188;2023-08-20T00:35:03;95558.91;;;22.99;84.37
8366;BME280;4220;42.502;24.188;2023-08-20T00:37:32;95553.31;;;22.91;84.75
8366;BME280;4220;42.502;24.188;2023-08-20T00:40:00;95552.28;;;22.87;85.68
8366;BME280;4220;42.502;24.188;2023-08-20T00:42:31;95521.72;;;22.57;86.66
8366;BME280;4220;42.502;24.188;2023-08-20T00:44:58;95561.47;;;22.86;87.07
8366;BME280;4220;42.502;24.188;2023-08-20T00:47:24;95557.72;;;22.82;87.77
8366;BME280;4220;42.502;24.188;2023-08-20T00:49:52;95542.94;;;22.74;87.93
8366;BME280;4220;42.502;24.188;2023-08-20T00:52:20;95550.25;;;22.73;88.38
8366;BME280;4220;42.502;24.188;2023-08-20T00:54:49;95539.88;;;22.52;89.48
8366;BME280;4220;42.502;24.188;2023-08-20T00:57:18;95539.94;;;22.47;90.66
8366;BME280;4220;42.502;24.188;2023-08-20T00:59:48;95534.53;;;22.18;92.27
8366;BME280;4220;42.502;24.188;2023-08-20T01:02:16;95537.69;;;22.25;92.18
8366;BME280;4220;42.502;24.188;2023-08-20T01:04:42;95550.25;;;22.11;93.30
8366;BME280;4220;42.502;24.188;2023-08-20T01:07:16;95542.31;;;22.20;92.65
8366;BME280;4220;42.502;24.188;2023-08-20T01:09:50;95520.53;;;22.11;91.74
8366;BME280;4220;42.502;24.188;2023-08-20T01:12:22;95523.63;;;21.94;93.22
8366;BME280;4220;42.502;24.188;2023-08-20T01:14:51;95520.50;;;21.72;95.56
8366;BME280;4220;42.502;24.188;2023-08-20T01:17:18;95515.06;;;21.38;98.64
8366;BME280;4220;42.502;24.188;2023-08-20T01:19:45;95509.53;;;21.05;100.00
8366;BME280;4220;42.502;24.188;2023-08-20T01:22:26;95513.28;;;21.04;100.00
8366;BME280;4220;42.502;24.188;2023-08-20T01:25:04;95516.97;;;21.33;100.00
8366;BME280;4220;42.502;24.188;2023-08-20T01:27:43;95524.41;;;21.56;100.00
8366;BME280;4220;42.502;24.188;2023-08-20T01:30:18;95515.66;;;21.74;99.56
8366;BME280;4220;42.502;24.188;2023-08-20T01:32:48;95451.59;;;21.46;98.30
8366;BME280;4220;42.502;24.188;2023-08-20T01:35:16;95510.38;;;21.98;97.57
8366;BME280;4220;42.502;24.188;2023-08-20T01:37:43;95492.28;;;21.98;96.42
8366;BME280;4220;42.502;24.188;2023-08-20T01:40:11;95503.78;;;22.09;96.03
8366;BME280;4220;42.502;24.188;2023-08-20T01:42:38;95500.56;;;21.68;98.45
8366;BME280;4220;42.502;24.188;2023-08-20T01:45:06;95492.88;;;21.46;100.00
8366;BME280;4220;42.502;24.188;2023-08-20T01:47:35;95490.13;;;21.57;99.28
8366;BME280;4220;42.502;24.188;2023-08-20T01:50:02;95485.50;;;21.62;98.64
8366;BME280;4220;42.502;24.188;2023-08-20T01:52:29;95486.25;;;21.68;98.53
8366;BME280;4220;42.502;24.188;2023-08-20T01:54:58;95450.75;;;21.50;97.47
8366;BME280;4220;42.502;24.188;2023-08-20T01:57:24;95489.75;;;21.68;97.75
8366;BME280;4220;42.502;24.188;2023-08-20T01:59:51;95488.47;;;21.61;98.23
8366;BME280;4220;42.502;24.188;2023-08-20T02:02:18;95477.41;;;21.62;98.57
8366;BME280;4220;42.502;24.188;2023-08-20T02:04:47;95472.78;;;21.63;98.58
8366;BME280;4220;42.502;24.188;2023-08-20T02:07:14;95485.34;;;21.43;99.78
8366;BME280;4220;42.502;24.188;2023-08-20T02:09:41;95475.72;;;21.32;100.00
8366;BME280;4220;42.502;24.188;2023-08-20T02:12:08;95468.53;;;21.13;100.00
8366;BME280;4220;42.502;24.188;2023-08-20T02:14:35;95477.41;;;21.13;100.00
8366;BME280;4220;42.502;24.188;2023-08-20T02:17:02;95469.66;;;20.92;100.00
8366;BME280;4220;42.502;24.188;2023-08-20T02:19:29;95431.72;;;20.83;100.00
8366;BME280;4220;42.502;24.188;2023-08-20T02:21:57;95456.44;;;21.05;100.00
8366;BME280;4220;42.502;24.188;2023-08-20T02:24:24;95469.25;;;21.23;100.00
8366;BME280;4220;42.502;24.188;2023-08-20T02:26:51;95436.13;;;21.18;100.00
8366;BME280;4220;42.502;24.188;2023-08-20T02:29:18;95421.19;;;21.30;98.69
8366;BME280;4220;42.502;24.188;2023-08-20T02:31:45;95467.97;;;21.60;98.18
8366;BME280;4220;42.502;24.188;2023-08-20T02:34:12;95468.69;;;21.70;97.50
8366;BME280;4220;42.502;24.188;2023-08-20T02:36:38;95461.91;;;21.73;97.37
8366;BME280;4220;42.502;24.188;2023-08-20T02:39:07;95461.66;;;21.74;97.13
8366;BME280;4220;42.502;24.188;2023-08-20T02:41:34;95465.09;;;21.80;96.84
8366;BME280;4220;42.502;24.188;2023-08-20T02:44:01;95460.81;;;21.79;96.68
8366;BME280;4220;42.502;24.188;2023-08-20T02:46:28;95457.25;;;21.83;96.48
8366;BME280;4220;42.502;24.188;2023-08-20T02:48:55;95439.84;;;21.66;96.76
8366;BME280;4220;42.502;24.188;2023-08-20T02:51:22;95459.78;;;21.70;97.40
8366;BME280;4220;42.502;24.188;2023-08-20T02:53:49;95451.22;;;21.58;97.74
8366;BME280;4220;42.502;24.188;2023-08-20T02:56:17;95463.53;;;21.40;99.01
8366;BME280;4220;42.502;24.188;2023-08-20T02:58:44;95458.34;;;20.95;100.00
8366;BME280;4220;42.502;24.188;2023-08-20T03:01:18;95467.81;;;20.82;100.00
8366;BME280;4220;42.502;24.188;2023-08-20T03:03:45;95467.78;;;20.92;100.00
8366;BME280;4220;42.502;24.188;2023-08-20T03:06:11;95461.81;;;21.05;100.00
8366;BME280;4220;42.502;24.188;2023-08-20T03:08:39;95459.59;;;21.17;100.00
8366;BME280;4220;42.502;24.188;2023-08-20T03:11:06;95461.69;;;21.25;100.00
8366;BME280;4220;42.502;24.188;2023-08-20T03:13:34;95466.31;;;21.25;100.00
8366;BME280;4220;42.502;24.188;2023-08-20T03:16:01;95470.06;;;21.24;99.81
8366;BME280;4220;42.502;24.188;2023-08-20T03:18:28;95473.88;;;21.23;100.00
8366;BME280;4220;42.502;24.188;2023-08-20T03:20:55;95476.03;;;21.16;100.00
8366;BME280;4220;42.502;24.188;2023-08-20T03:23:22;95479.59;;;21.11;100.00
8366;BME280;4220;42.502;24.188;2023-08-20T03:25:49;95482.03;;;21.08;100.00
8366;BME280;4220;42.502;24.188;2023-08-20T03:28:17;95479.13;;;20.89;100.00
8366;BME280;4220;42.502;24.188;2023-08-20T03:30:46;95485.13;;;20.76;100.00
8366;BME280;4220;42.502;24.188;2023-08-20T03:33:13;95478.50;;;20.28;100.00
8366;BME280;4220;42.502;24.188;2023-08-20T03:35:40;95477.69;;;20.23;100.00
8366;BME280;4220;42.502;24.188;2023-08-20T03:38:07;95473.38;;;20.11;100.00
8366;BME280;4220;42.502;24.188;2023-08-20T03:40:34;95477.94;;;20.16;100.00
8366;BME280;4220;42.502;24.188;2023-08-20T03:43:01;95473.38;;;20.21;100.00
8366;BME280;4220;42.502;24.188;2023-08-20T03:45:28;95447.28;;;20.07;100.00
8366;BME280;4220;42.502;24.188;2023-08-20T03:47:57;95480.13;;;20.09;100.00
8366;BME280;4220;42.502;24.188;2023-08-20T03:50:24;95481.47;;;20.06;100.00
8366;BME280;4220;42.502;24.188;2023-08-20T03:52:51;95481.16;;;20.13;100.00
8366;BME280;4220;42.502;24.188;2023-08-20T03:55:18;95484.97;;;20.12;100.00
8366;BME280;4220;42.502;24.188;2023-08-20T03:57:45;95479.06;;;20.00;100.00
8366;BME280;4220;42.502;24.188;2023-08-20T04:00:12;95466.38;;;20.10;100.00
8366;BME280;4220;42.502;24.188;2023-08-20T04:02:39;95475.50;;;20.40;100.00
8366;BME280;4220;42.502;24.188;2023-08-20T04:05:08;95481.94;;;20.54;100.00
8366;BME280;4220;42.502;24.188;2023-08-20T04:07:35;95474.38;;;20.66;100.00
8366;BME280;4220;42.502;24.188;2023-08-20T04:10:02;95484.00;;;20.77;100.00
8366;BME280;4220;42.502;24.188;2023-08-20T04:12:29;95477.25;;;20.84;100.00
8366;BME280;4220;42.502;24.188;2023-08-20T04:14:55;95483.66;;;20.94;100.00
8366;BME280;4220;42.502;24.188;2023-08-20T04:17:22;95468.88;;;20.86;100.00
8366;BME280;4220;42.502;24.188;2023-08-20T04:19:49;95480.75;;;20.90;100.00
8366;BME280;4220;42.502;24.188;2023-08-20T04:22:18;95487.81;;;20.71;100.00
8366;BME280;4220;42.502;24.188;2023-08-20T04:24:44;95481.69;;;20.50;100.00
8366;BME280;4220;42.502;24.188;2023-08-20T04:27:11;95483.03;;;20.43;100.00
8366;BME280;4220;42.502;24.188;2023-08-20T04:29:38;95483.81;;;20.58;100.00
8366;BME280;4220;42.502;24.188;2023-08-20T04:32:05;95472.22;;;20.58;100.00
8366;BME280;4220;42.502;24.188;2023-08-20T04:34:32;95477.03;;;20.76;100.00
8366;BME280;4220;42.502;24.188;2023-08-20T04:36:59;95479.13;;;20.89;100.00
8366;BME280;4220;42.502;24.188;2023-08-20T04:39:27;95476.91;;;20.96;100.00
8366;BME280;4220;42.502;24.188;2023-08-20T04:41:54;95480.69;;;21.10;100.00
8366;BME280;4220;42.502;24.188;2023-08-20T04:44:23;95377.13;;;20.52;100.00
8366;BME280;4220;42.502;24.188;2023-08-20T04:46:50;95474.91;;;21.32;99.77
8366;BME280;4220;42.502;24.188;2023-08-20T04:49:17;95485.03;;;21.45;98.39
8366;BME280;4220;42.502;24.188;2023-08-20T04:51:44;95480.41;;;21.56;97.68
8366;BME280;4220;42.502;24.188;2023-08-20T04:54:10;95478.69;;;21.70;96.68
8366;BME280;4220;42.502;24.188;2023-08-20T04:56:38;95478.34;;;21.86;95.93
8366;BME280;4220;42.502;24.188;2023-08-20T04:59:05;95486.56;;;22.00;95.31
8366;BME280;4220;42.502;24.188;2023-08-20T05:01:32;95398.28;;;21.67;94.27
8366;BME280;4220;42.502;24.188;2023-08-20T05:03:59;95484.63;;;22.34;92.62
8366;BME280;4220;42.502;24.188;2023-08-20T05:06:26;95474.81;;;22.43;93.13
8366;BME280;4220;42.502;24.188;2023-08-20T05:08:53;95483.94;;;22.52;93.25
8366;BME280;4220;42.502;24.188;2023-08-20T05:11:20;95483.88;;;22.57;93.48
8366;BME280;4220;42.502;24.188;2023-08-20T05:13:49;95475.75;;;22.62;92.84
8366;BME280;4220;42.502;24.188;2023-08-20T05:16:16;95486.44;;;22.72;92.52
8366;BME280;4220;42.502;24.188;2023-08-20T05:18:43;95485.91;;;22.70;92.13
8366;BME280;4220;42.502;24.188;2023-08-20T05:21:10;95489.66;;;22.74;92.15
8366;BME280;4220;42.502;24.188;2023-08-20T05:23:38;95496.28;;;22.87;91.32
8366;BME280;4220;42.502;24.188;2023-08-20T05:26:06;95495.88;;;22.99;90.20
8366;BME280;4220;42.502;24.188;2023-08-20T05:28:33;95490.75;;;22.97;88.85
8366;BME280;4220;42.502;24.188;2023-08-20T05:31:01;95505.31;;;23.01;88.72
8366;BME280;4220;42.502;24.188;2023-08-20T05:33:28;95498.06;;;22.97;88.70
8366;BME280;4220;42.502;24.188;2023-08-20T05:35:55;95499.19;;;22.91;89.17
8366;BME280;4220;42.502;24.188;2023-08-20T05:38:21;95502.22;;;22.89;89.96
8366;BME280;4220;42.502;24.188;2023-08-20T05:40:48;95499.78;;;22.88;90.06
8366;BME280;4220;42.502;24.188;2023-08-20T05:43:15;95504.16;;;22.84;90.53
8366;BME280;4220;42.502;24.188;2023-08-20T05:45:42;95501.97;;;22.86;90.08
8366;BME280;4220;42.502;24.188;2023-08-20T05:48:10;95496.44;;;22.96;89.17
8366;BME280;4220;42.502;24.188;2023-08-20T05:50:37;95505.69;;;23.13;88.51
8366;BME280;4220;42.502;24.188;2023-08-20T05:53:04;95513.13;;;23.26;87.92
8366;BME280;4220;42.502;24.188;2023-08-20T05:55:31;95516.50;;;23.37;87.18
8366;BME280;4220;42.502;24.188;2023-08-20T05:57:58;95515.66;;;23.42;86.55
8366;BME280;4220;42.502;24.188;2023-08-20T06:00:25;95519.53;;;23.54;86.04
8366;BME280;4220;42.502;24.188;2023-08-20T06:02:51;95519.19;;;23.61;85.39
8366;BME280;4220;42.502;24.188;2023-08-20T06:05:20;95522.75;;;23.75;84.97
8366;BME280;4220;42.502;24.188;2023-08-20T06:07:46;95511.03;;;23.79;84.66
8366;BME280;4220;42.502;24.188;2023-08-20T06:10:13;95524.47;;;24.03;84.48
8366;BME280;4220;42.502;24.188;2023-08-20T06:12:40;95525.97;;;24.14;83.91
8366;BME280;4220;42.502;24.188;2023-08-20T06:15:08;95532.13;;;24.20;83.89
8366;BME280;4220;42.502;24.188;2023-08-20T06:17:35;95530.56;;;24.32;83.55
8366;BME280;4220;42.502;24.188;2023-08-20T06:20:03;95534.19;;;24.41;83.42
8366;BME280;4220;42.502;24.188;2023-08-20T06:22:32;95531.91;;;24.48;83.35
8366;BME280;4220;42.502;24.188;2023-08-20T06:24:59;95526.97;;;24.50;83.34
8366;BME280;4220;42.502;24.188;2023-08-20T06:27:25;95521.28;;;24.52;83.43
8366;BME280;4220;42.502;24.188;2023-08-20T06:29:52;95537.44;;;24.57;82.84
8366;BME280;4220;42.502;24.188;2023-08-20T06:32:19;95531.22;;;24.56;82.19
8366;BME280;4220;42.502;24.188;2023-08-20T06:34:46;95502.13;;;24.30;82.00
8366;BME280;4220;42.502;24.188;2023-08-20T06:37:13;95528.03;;;24.36;83.52
8366;BME280;4220;42.502;24.188;2023-08-20T06:39:41;95539.75;;;24.18;84.34
8366;BME280;4220;42.502;24.188;2023-08-20T06:42:08;95525.28;;;24.03;82.47
8366;BME280;4220;42.502;24.188;2023-08-20T06:44:35;95539.06;;;23.88;82.57
8366;BME280;4220;42.502;24.188;2023-08-20T06:47:02;95553.28;;;23.99;82.60
8366;BME280;4220;42.502;24.188;2023-08-20T06:49:29;95540.53;;;24.18;80.88
8366;BME280;4220;42.502;24.188;2023-08-20T06:51:56;95548.81;;;24.27;79.26
8366;BME280;4220;42.502;24.188;2023-08-20T06:54:23;95546.03;;;24.45;77.39
8366;BME280;4220;42.502;24.188;2023-08-20T06:56:51;95555.00;;;24.78;75.13
8366;BME280;4220;42.502;24.188;2023-08-20T06:59:18;95546.88;;;25.05;74.90
8366;BME280;4220;42.502;24.188;2023-08-20T07:01:45;95559.44;;;25.15;71.27
8366;BME280;4220;42.502;24.188;2023-08-20T07:04:11;95556.25;;;25.13;72.21
8366;BME280;4220;42.502;24.188;2023-08-20T07:06:39;95558.34;;;25.16;68.75
8366;BME280;4220;42.502;24.188;2023-08-20T07:09:07;95545.06;;;25.14;69.19
8366;BME280;4220;42.502;24.188;2023-08-20T07:11:34;95553.03;;;25.52;68.40
8366;BME280;4220;42.502;24.188;2023-08-20T07:14:03;95554.00;;;25.56;67.97
8366;BME280;4220;42.502;24.188;2023-08-20T07:16:31;95546.78;;;25.38;68.88
8366;BME280;4220;42.502;24.188;2023-08-20T07:18:58;95549.31;;;25.48;68.94
8366;BME280;4220;42.502;24.188;2023-08-20T07:21:24;95550.59;;;25.64;67.80
8366;BME280;4220;42.502;24.188;2023-08-20T07:23:51;95551.56;;;25.68;66.75
8366;BME280;4220;42.502;24.188;2023-08-20T07:26:18;95540.72;;;25.68;67.03
8366;BME280;4220;42.502;24.188;2023-08-20T07:28:45;95543.69;;;25.93;66.50
8366;BME280;4220;42.502;24.188;2023-08-20T07:31:27;95550.47;;;26.18;64.83
8366;BME280;4220;42.502;24.188;2023-08-20T07:33:55;95557.25;;;26.29;62.04
8366;BME280;4220;42.502;24.188;2023-08-20T07:36:22;95553.50;;;26.17;62.75
8366;BME280;4220;42.502;24.188;2023-08-20T07:38:51;95549.22;;;26.24;63.01
8366;BME280;4220;42.502;24.188;2023-08-20T07:41:18;95550.16;;;26.42;61.78
8366;BME280;4220;42.502;24.188;2023-08-20T07:43:47;95551.25;;;26.63;58.07
8366;BME280;4220;42.502;24.188;2023-08-20T07:46:14;95561.22;;;26.68;58.01
8366;BME280;4220;42.502;24.188;2023-08-20T07:48:43;95561.69;;;26.70;56.97
8366;BME280;4220;42.502;24.188;2023-08-20T07:51:10;95528.97;;;26.61;57.60
8366;BME280;4220;42.502;24.188;2023-08-20T07:53:37;95561.22;;;26.90;57.38
8366;BME280;4220;42.502;24.188;2023-08-20T07:56:04;95557.72;;;26.98;56.42
8366;BME280;4220;42.502;24.188;2023-08-20T07:58:31;95563.47;;;26.96;57.29
8366;BME280;4220;42.502;24.188;2023-08-20T08:00:58;95549.69;;;26.93;57.38
8366;BME280;4220;42.502;24.188;2023-08-20T08:03:25;95548.69;;;26.89;56.98
8366;BME280;4220;42.502;24.188;2023-08-20T08:05:54;95551.16;;;26.99;56.98
8366;BME280;4220;42.502;24.188;2023-08-20T08:08:22;95558.78;;;27.19;56.78
8366;BME280;4220;42.502;24.188;2023-08-20T08:10:49;95555.16;;;27.32;56.18
8366;BME280;4220;42.502;24.188;2023-08-20T08:13:18;95525.13;;;27.15;56.38
8366;BME280;4220;42.502;24.188;2023-08-20T08:15:46;95556.16;;;27.45;55.80
8366;BME280;4220;42.502;24.188;2023-08-20T08:18:12;95547.69;;;27.55;54.93
8366;BME280;4220;42.502;24.188;2023-08-20T08:20:39;95554.09;;;27.50;55.04
8366;BME280;4220;42.502;24.188;2023-08-20T08:23:08;95565.59;;;27.39;55.18
8366;BME280;4220;42.502;24.188;2023-08-20T08:25:34;95559.16;;;27.35;55.27
8366;BME280;4220;42.502;24.188;2023-08-20T08:28:03;95556.00;;;27.41;55.71
8366;BME280;4220;42.502;24.188;2023-08-20T08:30:29;95559.81;;;27.40;54.90
8366;BME280;4220;42.502;24.188;2023-08-20T08:32:56;95553.13;;;27.46;54.74
8366;BME280;4220;42.502;24.188;2023-08-20T08:35:23;95556.53;;;27.60;55.07
8366;BME280;4220;42.502;24.188;2023-08-20T08:37:50;95566.03;;;27.71;52.90
8366;BME280;4220;42.502;24.188;2023-08-20T08:40:18;95546.91;;;27.63;52.63
8366;BME280;4220;42.502;24.188;2023-08-20T08:42:48;95562.00;;;27.69;52.33
8366;BME280;4220;42.502;24.188;2023-08-20T08:45:18;95554.81;;;27.90;52.45
8366;BME280;4220;42.502;24.188;2023-08-20T08:47:46;95549.41;;;28.16;52.17
8366;BME280;4220;42.502;24.188;2023-08-20T08:50:14;95551.44;;;28.53;50.68
8366;BME280;4220;42.502;24.188;2023-08-20T08:52:41;95547.72;;;28.83;49.40
8366;BME280;4220;42.502;24.188;2023-08-20T08:55:08;95549.03;;;28.77;49.63
8366;BME280;4220;42.502;24.188;2023-08-20T08:57:37;95560.91;;;28.56;49.89
8366;BME280;4220;42.502;24.188;2023-08-20T09:00:05;95552.09;;;28.41;49.98
8366;BME280;4220;42.502;24.188;2023-08-20T09:02:32;95545.38;;;28.39;50.61
8366;BME280;4220;42.502;24.188;2023-08-20T09:04:59;95544.22;;;28.48;50.68
8366;BME280;4220;42.502;24.188;2023-08-20T09:07:26;95548.91;;;28.39;50.66
8366;BME280;4220;42.502;24.188;2023-08-20T09:09:57;95517.78;;;28.23;50.15
8366;BME280;4220;42.502;24.188;2023-08-20T09:12:25;95545.03;;;28.40;50.41
8366;BME280;4220;42.502;24.188;2023-08-20T09:14:53;95546.50;;;28.55;50.35
8366;BME280;4220;42.502;24.188;2023-08-20T09:17:26;95542.47;;;28.70;49.68
8366;BME280;4220;42.502;24.188;2023-08-20T09:19:54;95545.13;;;28.95;49.48
8366;BME280;4220;42.502;24.188;2023-08-20T09:22:23;95543.13;;;29.22;48.41
8366;BME280;4220;42.502;24.188;2023-08-20T09:24:53;95541.69;;;29.53;47.69
8366;BME280;4220;42.502;24.188;2023-08-20T09:27:20;95541.97;;;29.90;46.75
8366;BME280;4220;42.502;24.188;2023-08-20T09:29:48;95523.53;;;29.78;45.67
8366;BME280;4220;42.502;24.188;2023-08-20T09:32:17;95537.78;;;29.63;46.66
8366;BME280;4220;42.502;24.188;2023-08-20T09:34:45;95541.72;;;29.74;46.22
8366;BME280;4220;42.502;24.188;2023-08-20T09:37:13;95552.84;;;29.77;45.45
8366;BME280;4220;42.502;24.188;2023-08-20T09:39:40;95546.63;;;29.89;45.08
8366;BME280;4220;42.502;24.188;2023-08-20T09:42:08;95535.03;;;29.92;45.15
8366;BME280;4220;42.502;24.188;2023-08-20T09:44:36;95531.69;;;30.28;43.97
8366;BME280;4220;42.502;24.188;2023-08-20T09:47:06;95530.78;;;30.57;43.22
8366;BME280;4220;42.502;24.188;2023-08-20T09:49:36;95532.81;;;30.80;42.51
8366;BME280;4220;42.502;24.188;2023-08-20T09:52:05;95541.84;;;30.81;41.86
8366;BME280;4220;42.502;24.188;2023-08-20T09:54:48;95524.56;;;30.68;41.82
8366;BME280;4220;42.502;24.188;2023-08-20T09:57:24;95529.91;;;30.65;41.52
8366;BME280;4220;42.502;24.188;2023-08-20T09:59:53;95526.06;;;30.66;41.63
8366;BME280;4220;42.502;24.188;2023-08-20T10:02:21;95516.44;;;30.60;41.16
8366;BME280;4220;42.502;24.188;2023-08-20T10:04:50;95517.63;;;30.38;41.31
8366;BME280;4220;42.502;24.188;2023-08-20T10:07:18;95522.25;;;30.58;41.00
8366;BME280;4220;42.502;24.188;2023-08-20T10:09:46;95532.44;;;30.70;40.68
8366;BME280;4220;42.502;24.188;2023-08-20T10:12:16;95527.63;;;30.99;40.29
8366;BME280;4220;42.502;24.188;2023-08-20T10:14:42;95530.84;;;31.14;39.45
8366;BME280;4220;42.502;24.188;2023-08-20T10:17:11;95529.50;;;31.20;39.46
8366;BME280;4220;42.502;24.188;2023-08-20T10:19:40;95522.69;;;31.50;39.16
8366;BME280;4220;42.502;24.188;2023-08-20T10:22:09;95523.69;;;31.82;37.95
8366;BME280;4220;42.502;24.188;2023-08-20T10:24:44;95528.22;;;32.02;36.62
8366;BME280;4220;42.502;24.188;2023-08-20T10:27:23;95522.88;;;31.81;36.83
8366;BME280;4220;42.502;24.188;2023-08-20T10:29:52;95526.19;;;31.87;36.38
8366;BME280;4220;42.502;24.188;2023-08-20T10:32:19;95512.91;;;32.01;35.56
8366;BME280;4220;42.502;24.188;2023-08-20T10:34:50;95521.84;;;32.38;35.62
8366;BME280;4220;42.502;24.188;2023-08-20T10:37:26;95517.75;;;32.59;35.49
8366;BME280;4220;42.502;24.188;2023-08-20T10:39:54;95524.00;;;32.72;35.12
8366;BME280;4220;42.502;24.188;2023-08-20T10:42:22;95514.81;;;32.80;34.32
8366;BME280;4220;42.502;24.188;2023-08-20T10:45:02;95513.59;;;33.09;34.13
8366;BME280;4220;42.502;24.188;2023-08-20T10:47:41;95510.84;;;33.40;33.94
8366;BME280;4220;42.502;24.188;2023-08-20T10:50:09;95483.53;;;33.16;33.88
8366;BME280;4220;42.502;24.188;2023-08-20T10:52:40;95513.19;;;32.79;33.89
8366;BME280;4220;42.502;24.188;2023-08-20T10:55:08;95507.59;;;32.75;34.52
8366;BME280;4220;42.502;24.188;2023-08-20T10:57:35;95517.03;;;32.90;34.12
8366;BME280;4220;42.502;24.188;2023-08-20T11:00:04;95509.97;;;33.20;34.42
8366;BME280;4220;42.502;24.188;2023-08-20T11:02:37;95506.69;;;33.15;33.30
8366;BME280;4220;42.502;24.188;2023-08-20T11:05:04;95510.66;;;33.48;33.09
8366;BME280;4220;42.502;24.188;2023-08-20T11:07:45;95505.22;;;33.83;33.04
8366;BME280;4220;42.502;24.188;2023-08-20T11:10:13;95503.63;;;33.82;32.01
8366;BME280;4220;42.502;24.188;2023-08-20T11:12:40;95490.19;;;33.15;33.23
8366;BME280;4220;42.502;24.188;2023-08-20T11:15:09;95492.06;;;33.11;33.55
8366;BME280;4220;42.502;24.188;2023-08-20T11:17:40;95491.69;;;33.28;33.31
8366;BME280;4220;42.502;24.188;2023-08-20T11:20:07;95494.53;;;33.16;33.83
8366;BME280;4220;42.502;24.188;2023-08-20T11:22:34;95479.28;;;33.34;33.58
8366;BME280;4220;42.502;24.188;2023-08-20T11:25:03;95480.69;;;33.28;33.28
8366;BME280;4220;42.502;24.188;2023-08-20T11:27:32;95482.09;;;33.37;32.76
8366;BME280;4220;42.502;24.188;2023-08-20T11:29:58;95472.13;;;33.14;33.67
8366;BME280;4220;42.502;24.188;2023-08-20T11:32:25;95478.47;;;33.33;33.06
8366;BME280;4220;42.502;24.188;2023-08-20T11:34:52;95376.94;;;33.25;32.90
8366;BME280;4220;42.502;24.188;2023-08-20T11:37:20;95474.13;;;34.37;32.05
8366;BME280;4220;42.502;24.188;2023-08-20T11:39:47;95462.72;;;34.99;31.75
8366;BME280;4220;42.502;24.188;2023-08-20T11:42:16;95431.56;;;35.18;30.13
8366;BME280;4220;42.502;24.188;2023-08-20T11:44:45;95463.84;;;35.66;30.16
8366;BME280;4220;42.502;24.188;2023-08-20T11:47:15;95465.47;;;35.97;29.46
8366;BME280;4220;42.502;24.188;2023-08-20T11:49:42;95454.56;;;36.07;29.16
8366;BME280;4220;42.502;24.188;2023-08-20T11:52:10;95449.66;;;35.94;29.34
8366;BME280;4220;42.502;24.188;2023-08-20T11:54:38;95434.16;;;35.86;29.54
8366;BME280;4220;42.502;24.188;2023-08-20T11:57:06;95460.63;;;36.17;28.69
8366;BME280;4220;42.502;24.188;2023-08-20T11:59:35;95459.13;;;36.23;28.75
8366;BME280;4220;42.502;24.188;2023-08-20T12:02:03;95462.19;;;36.47;28.56
8366;BME280;4220;42.502;24.188;2023-08-20T12:04:30;95460.13;;;36.74;28.57
8366;BME280;4220;42.502;24.188;2023-08-20T12:07:04;95453.72;;;37.03;27.73
8366;BME280;4220;42.502;24.188;2023-08-20T12:09:31;95446.47;;;36.92;28.28
8366;BME280;4220;42.502;24.188;2023-08-20T12:11:58;95445.50;;;37.10;27.88
8366;BME280;4220;42.502;24.188;2023-08-20T12:14:26;95442.34;;;37.12;28.23
8366;BME280;4220;42.502;24.188;2023-08-20T12:16:55;95450.13;;;36.99;28.62
8366;BME280;4220;42.502;24.188;2023-08-20T12:19:22;95437.47;;;36.98;28.52
8366;BME280;4220;42.502;24.188;2023-08-20T12:21:49;95441.41;;;36.97;28.20
8366;BME280;4220;42.502;24.188;2023-08-20T12:24:16;95435.59;;;37.13;27.54
8366;BME280;4220;42.502;24.188;2023-08-20T12:26:44;95429.81;;;37.25;27.08
8366;BME280;4220;42.502;24.188;2023-08-20T12:29:11;95430.66;;;37.36;27.18
8366;BME280;4220;42.502;24.188;2023-08-20T12:31:38;95421.63;;;37.39;26.99
8366;BME280;4220;42.502;24.188;2023-08-20T12:34:07;95408.69;;;37.57;26.83
8366;BME280;4220;42.502;24.188;2023-08-20T12:36:34;95415.81;;;37.58;27.25
8366;BME280;4220;42.502;24.188;2023-08-20T12:39:01;95423.00;;;37.66;26.76
8366;BME280;4220;42.502;24.188;2023-08-20T12:41:30;95420.44;;;37.98;26.23
8366;BME280;4220;42.502;24.188;2023-08-20T12:43:57;95418.16;;;38.25;26.38
8366;BME280;4220;42.502;24.188;2023-08-20T12:46:24;95420.28;;;38.67;25.99
8366;BME280;4220;42.502;24.188;2023-08-20T12:48:50;95411.97;;;38.70;25.34
8366;BME280;4220;42.502;24.188;2023-08-20T12:51:19;95410.84;;;38.99;25.50
8366;BME280;4220;42.502;24.188;2023-08-20T12:53:45;95407.72;;;39.18;24.54
8366;BME280;4220;42.502;24.188;2023-08-20T12:56:12;95416.03;;;39.33;25.22
8366;BME280;4220;42.502;24.188;2023-08-20T12:58:41;95420.75;;;39.53;25.00
8366;BME280;4220;42.502;24.188;2023-08-20T13:01:08;95417.19;;;39.32;24.94
8366;BME280;4220;42.502;24.188;2023-08-20T13:03:35;95340.28;;;38.72;25.18
8366;BME280;4220;42.502;24.188;2023-08-20T13:06:03;95414.44;;;39.17;25.60
8366;BME280;4220;42.502;24.188;2023-08-20T13:08:32;95413.19;;;38.97;25.55
8366;BME280;4220;42.502;24.188;2023-08-20T13:11:03;95362.09;;;38.84;25.26
8366;BME280;4220;42.502;24.188;2023-08-20T13:13:32;95394.22;;;39.24;25.32